createdAt,value
2022-08-05T00:00:16.139Z,20.00
2022-08-05T00:02:43.979Z,19.90
2022-08-05T00:06:03.279Z,20.00
2022-08-05T00:08:32.836Z,19.90
2022-08-05T00:10:53.104Z,19.90
2022-08-05T00:13:19.968Z,19.90
2022-08-05T00:15:55.350Z,19.90
2022-08-05T00:18:25.107Z,19.90
2022-08-05T00:20:52.219Z,20.00
2022-08-05T00:23:44.424Z,19.90
2022-08-05T00:26:07.504Z,19.90
2022-08-05T00:28:34.706Z,19.90
2022-08-05T00:31:02.820Z,19.90
2022-08-05T00:34:54.360Z,20.00
2022-08-05T00:37:10.880Z,20.00
2022-08-05T00:39:13.639Z,20.00
2022-08-05T00:41:46.864Z,19.90
2022-08-05T00:44:30.785Z,19.90
2022-08-05T00:47:01.861Z,19.90
2022-08-05T00:49:51.041Z,19.80
2022-08-05T00:52:19.183Z,19.80
2022-08-05T00:54:56.184Z,19.90
2022-08-05T00:57:25.184Z,19.80
2022-08-05T00:59:52.515Z,19.90
2022-08-05T01:02:19.823Z,19.80
2022-08-05T01:04:51.183Z,19.80
2022-08-05T01:07:18.139Z,19.70
2022-08-05T01:09:45.111Z,19.70
2022-08-05T01:12:18.018Z,19.70
2022-08-05T01:14:51.839Z,19.70
2022-08-05T01:17:53.545Z,19.70
2022-08-05T01:20:20.683Z,19.70
2022-08-05T01:23:14.415Z,19.70
2022-08-05T01:26:12.929Z,19.70
2022-08-05T01:29:12.167Z,19.70
2022-08-05T01:31:45.518Z,19.80
2022-08-05T01:34:51.139Z,19.70
2022-08-05T01:37:32.871Z,19.70
2022-08-05T01:40:06.593Z,19.70
2022-08-05T01:42:36.650Z,19.70
2022-08-05T01:45:08.154Z,19.70
2022-08-05T01:47:38.698Z,19.70
2022-08-05T01:50:16.058Z,19.80
2022-08-05T01:52:49.746Z,19.80
2022-08-05T01:55:19.684Z,19.80
2022-08-05T01:58:29.500Z,19.80
2022-08-05T02:00:42.189Z,19.80
2022-08-05T02:03:31.260Z,19.80
2022-08-05T02:06:03.578Z,19.90
2022-08-05T02:08:58.147Z,19.80
2022-08-05T02:11:32.724Z,19.80
2022-08-05T02:14:12.347Z,19.80
2022-08-05T02:16:52.177Z,19.60
2022-08-05T02:19:34.298Z,19.60
2022-08-05T02:22:26.604Z,19.60
2022-08-05T02:25:02.556Z,19.60
2022-08-05T02:27:58.293Z,19.50
2022-08-05T02:30:20.826Z,19.60
2022-08-05T02:32:51.521Z,19.50
2022-08-05T02:35:27.994Z,19.60
2022-08-05T02:38:02.312Z,19.60
2022-08-05T02:40:30.121Z,19.60
2022-08-05T02:42:59.762Z,19.60
2022-08-05T02:45:28.886Z,19.50
2022-08-05T02:48:17.649Z,19.50
2022-08-05T02:50:48.395Z,19.40
2022-08-05T02:53:18.928Z,19.50
2022-08-05T02:55:54.766Z,19.50
2022-08-05T02:58:27.418Z,19.40
2022-08-05T03:00:57.086Z,19.40
2022-08-05T03:03:24.298Z,19.30
2022-08-05T03:06:56.938Z,19.40
2022-08-05T03:08:42.649Z,19.40
2022-08-05T03:11:53.199Z,19.50
2022-08-05T03:14:09.551Z,19.60
2022-08-05T03:16:40.637Z,19.50
2022-08-05T03:19:17.166Z,19.60
2022-08-05T03:21:54.202Z,19.50
2022-08-05T03:24:29.297Z,19.50
2022-08-05T03:27:01.237Z,19.50
2022-08-05T03:29:44.360Z,19.50
2022-08-05T03:32:14.310Z,19.50
2022-08-05T03:34:42.518Z,19.50
2022-08-05T03:37:19.313Z,19.50
2022-08-05T03:39:58.543Z,19.50
2022-08-05T03:42:27.108Z,19.60
2022-08-05T03:44:56.011Z,19.60
2022-08-05T03:47:24.376Z,19.60
2022-08-05T03:49:52.439Z,19.50
2022-08-05T03:52:36.872Z,19.60
2022-08-05T03:56:04.041Z,19.60
2022-08-05T03:58:17.835Z,19.70
2022-08-05T04:00:46.470Z,19.70
2022-08-05T04:03:28.168Z,19.70
2022-08-05T04:05:57.649Z,19.70
2022-08-05T04:08:34.858Z,19.70
2022-08-05T04:11:08.405Z,19.60
2022-08-05T04:13:50.832Z,19.50
2022-08-05T04:16:24.870Z,19.60
2022-08-05T04:18:57.860Z,19.70
2022-08-05T04:22:05.319Z,19.70
2022-08-05T04:24:19.204Z,19.80
2022-08-05T04:26:49.507Z,19.90
2022-08-05T04:29:17.038Z,19.80
2022-08-05T04:31:43.837Z,19.70
2022-08-05T04:34:33.117Z,19.60
2022-08-05T04:36:58.011Z,19.70
2022-08-05T04:39:25.003Z,19.70
2022-08-05T04:41:54.691Z,19.70
2022-08-05T04:44:29.958Z,19.70
2022-08-05T04:47:09.658Z,19.60
2022-08-05T04:50:01.917Z,19.60
2022-08-05T04:52:27.716Z,19.60
2022-08-05T04:54:57.201Z,19.60
2022-08-05T04:57:28.765Z,19.70
2022-08-05T04:59:56.608Z,19.60
2022-08-05T05:02:36.334Z,19.70
2022-08-05T05:05:26.063Z,19.70
2022-08-05T05:07:56.217Z,19.70
2022-08-05T05:10:29.531Z,19.80
2022-08-05T05:12:56.704Z,19.70
2022-08-05T05:15:57.436Z,19.70
2022-08-05T05:18:15.352Z,19.80
2022-08-05T05:20:55.556Z,19.80
2022-08-05T05:23:25.354Z,19.90
2022-08-05T05:25:53.389Z,19.80
2022-08-05T05:28:20.408Z,19.70
2022-08-05T05:30:49.595Z,19.70
2022-08-05T05:33:17.310Z,19.70
2022-08-05T05:35:48.370Z,19.80
2022-08-05T05:38:22.874Z,19.80
2022-08-05T05:40:57.324Z,20.00
2022-08-05T05:43:56.374Z,20.10
2022-08-05T05:46:17.314Z,20.10
2022-08-05T05:48:45.975Z,20.10
2022-08-05T05:51:22.246Z,20.10
2022-08-05T05:53:57.302Z,20.00
2022-08-05T05:56:33.306Z,19.80
2022-08-05T05:59:09.810Z,19.80
2022-08-05T06:01:41.498Z,19.70
2022-08-05T06:04:25.100Z,19.80
2022-08-05T06:06:52.037Z,19.80
2022-08-05T06:09:25.685Z,19.80
2022-08-05T06:12:06.016Z,19.80
2022-08-05T06:14:36.749Z,19.80
2022-08-05T06:17:22.638Z,20.00
2022-08-05T06:19:56.831Z,20.00
2022-08-05T06:22:33.678Z,19.90
2022-08-05T06:25:24.233Z,20.10
2022-08-05T06:28:10.964Z,20.10
2022-08-05T06:30:35.564Z,20.20
2022-08-05T06:33:02.377Z,20.10
2022-08-05T06:36:07.984Z,20.20
2022-08-05T06:38:16.365Z,20.40
2022-08-05T06:40:44.713Z,20.60
2022-08-05T06:43:58.580Z,20.80
2022-08-05T06:46:06.744Z,20.90
2022-08-05T06:48:54.739Z,20.90
2022-08-05T06:51:29.079Z,20.90
2022-08-05T06:53:58.398Z,20.90
2022-08-05T06:56:26.565Z,20.90
2022-08-05T06:58:54.383Z,20.90
2022-08-05T07:01:21.782Z,20.80
2022-08-05T07:03:49.817Z,20.80
2022-08-05T07:06:17.453Z,20.80
2022-08-05T07:08:51.932Z,21.00
2022-08-05T07:11:25.464Z,21.00
2022-08-05T07:14:20.287Z,21.00
2022-08-05T07:17:59.180Z,21.10
2022-08-05T07:20:31.178Z,21.30
2022-08-05T07:22:34.828Z,21.30
2022-08-05T07:25:21.697Z,21.20
2022-08-05T07:27:59.714Z,21.20
2022-08-05T07:30:33.747Z,21.20
2022-08-05T07:33:09.246Z,21.20
2022-08-05T07:36:02.439Z,21.40
2022-08-05T07:38:33.932Z,21.50
2022-08-05T07:42:07.743Z,21.50
2022-08-05T07:43:58.002Z,21.70
2022-08-05T07:46:30.823Z,21.90
2022-08-05T07:49:04.894Z,21.90
2022-08-05T07:51:40.807Z,22.00
2022-08-05T07:54:15.835Z,22.10
2022-08-05T07:57:13.312Z,22.40
2022-08-05T07:59:40.141Z,22.50
2022-08-05T08:02:15.755Z,22.40
2022-08-05T08:04:46.175Z,22.50
2022-08-05T08:07:13.855Z,22.60
2022-08-05T08:09:41.087Z,22.60
2022-08-05T08:12:27.309Z,22.50
2022-08-05T08:14:55.180Z,22.40
2022-08-05T08:17:22.314Z,22.30
2022-08-05T08:20:21.495Z,22.20
2022-08-05T08:22:37.289Z,22.20
2022-08-05T08:25:15.773Z,22.30
2022-08-05T08:27:47.495Z,22.30
2022-08-05T08:30:28.572Z,22.20
2022-08-05T08:33:02.664Z,22.10
2022-08-05T08:35:34.826Z,22.10
2022-08-05T08:38:07.670Z,22.20
2022-08-05T08:40:35.870Z,22.30
2022-08-05T08:45:16.808Z,22.40
2022-08-05T08:45:54.172Z,22.60
2022-08-05T08:48:36.151Z,22.60
2022-08-05T08:51:54.528Z,22.70
2022-08-05T08:53:56.118Z,22.50
2022-08-05T08:56:23.669Z,22.50
2022-08-05T08:58:54.088Z,22.60
2022-08-05T09:01:21.565Z,22.80
2022-08-05T09:03:58.288Z,22.80
2022-08-05T09:06:30.857Z,22.80
2022-08-05T09:09:02.466Z,22.90
2022-08-05T09:11:51.979Z,23.20
2022-08-05T09:14:56.769Z,23.40
2022-08-05T09:17:40.156Z,23.40
2022-08-05T09:20:02.913Z,23.30
2022-08-05T09:23:18.579Z,23.40
2022-08-05T09:26:00.897Z,23.20
2022-08-05T09:28:33.207Z,23.30
2022-08-05T09:32:08.513Z,23.20
2022-08-05T09:33:58.647Z,23.40
2022-08-05T09:36:56.295Z,23.60
2022-08-05T09:39:39.289Z,23.60
2022-08-05T09:42:20.201Z,23.30
2022-08-05T09:44:56.512Z,23.10
2022-08-05T09:47:49.056Z,23.30
2022-08-05T09:50:18.099Z,23.50
2022-08-05T09:53:01.135Z,23.90
2022-08-05T09:55:57.214Z,24.20
2022-08-05T09:58:22.238Z,24.10
2022-08-05T10:01:14.995Z,24.10
2022-08-05T10:03:58.818Z,23.80
2022-08-05T10:06:30.925Z,23.70
2022-08-05T10:09:27.568Z,23.70
2022-08-05T10:11:56.116Z,23.90
2022-08-05T10:14:28.307Z,23.90
2022-08-05T10:17:36.841Z,23.90
2022-08-05T10:20:04.149Z,24.00
2022-08-05T10:22:37.977Z,24.10
2022-08-05T10:25:10.414Z,24.00
2022-08-05T10:28:13.021Z,23.90
2022-08-05T10:31:21.090Z,23.70
2022-08-05T10:33:15.717Z,23.60
2022-08-05T10:35:44.110Z,23.50
2022-08-05T10:38:13.621Z,23.40
2022-08-05T10:40:49.563Z,23.30
2022-08-05T10:43:44.766Z,23.20
2022-08-05T10:46:14.921Z,23.10
2022-08-05T10:48:56.603Z,23.30
2022-08-05T10:51:48.692Z,23.40
2022-08-05T10:54:56.264Z,23.40
2022-08-05T10:57:30.947Z,23.40
2022-08-05T11:00:16.132Z,23.40
2022-08-05T11:03:09.987Z,23.50
2022-08-05T11:06:16.115Z,23.70
2022-08-05T11:09:32.179Z,24.20
2022-08-05T11:12:24.609Z,25.00
2022-08-05T11:15:20.134Z,25.30
2022-08-05T11:17:58.239Z,25.70
2022-08-05T11:20:47.534Z,25.90
2022-08-05T11:23:33.734Z,26.00
2022-08-05T11:26:29.248Z,26.20
2022-08-05T11:29:11.957Z,26.80
2022-08-05T11:31:57.341Z,26.90
2022-08-05T11:34:38.946Z,26.30
2022-08-05T11:38:36.740Z,26.00
2022-08-05T11:39:55.442Z,25.80
2022-08-05T11:42:28.527Z,26.10
2022-08-05T11:45:03.506Z,26.30
2022-08-05T11:47:48.550Z,26.50
2022-08-05T11:50:17.845Z,26.30
2022-08-05T11:52:46.050Z,26.50
2022-08-05T11:55:15.465Z,26.90
2022-08-05T11:58:10.062Z,27.20
2022-08-05T12:00:38.256Z,27.30
2022-08-05T12:03:28.694Z,27.00
2022-08-05T12:06:06.251Z,26.70
2022-08-05T12:08:51.017Z,26.60
2022-08-05T12:11:21.703Z,26.50
2022-08-05T12:14:06.172Z,26.40
2022-08-05T12:16:39.364Z,26.90
2022-08-05T12:19:08.527Z,27.30
2022-08-05T12:21:43.337Z,27.70
2022-08-05T12:24:17.596Z,27.90
2022-08-05T12:26:54.191Z,27.70
2022-08-05T12:29:22.489Z,27.30
2022-08-05T12:32:01.773Z,27.00
2022-08-05T12:34:36.949Z,27.00
2022-08-05T12:37:17.330Z,27.00
2022-08-05T12:40:03.141Z,27.40
2022-08-05T12:42:37.288Z,27.80
2022-08-05T12:45:09.846Z,27.90
2022-08-05T12:47:37.966Z,27.90
2022-08-05T12:50:15.056Z,27.40
2022-08-05T12:52:43.001Z,27.30
2022-08-05T12:55:25.689Z,27.10
2022-08-05T12:58:49.150Z,26.90
2022-08-05T13:02:04.164Z,26.90
2022-08-05T13:03:39.104Z,27.00
2022-08-05T13:06:13.366Z,27.10
2022-08-05T13:08:40.414Z,27.40
2022-08-05T13:11:07.996Z,27.30
2022-08-05T13:14:04.905Z,27.40
2022-08-05T13:16:28.733Z,27.50
2022-08-05T13:18:58.595Z,27.70
2022-08-05T13:21:28.319Z,28.10
2022-08-05T13:24:08.697Z,28.40
2022-08-05T13:26:36.179Z,28.50
2022-08-05T13:29:04.991Z,28.20
2022-08-05T13:32:02.851Z,27.80
2022-08-05T13:34:22.860Z,27.90
2022-08-05T13:36:53.673Z,28.00
2022-08-05T13:39:24.681Z,28.00
2022-08-05T13:42:14.703Z,27.80
2022-08-05T13:44:45.558Z,27.90
2022-08-05T13:47:34.786Z,28.00
2022-08-05T13:50:04.389Z,28.30
2022-08-05T13:52:35.308Z,28.30
2022-08-05T13:55:07.939Z,28.10
2022-08-05T13:57:50.870Z,28.20
2022-08-05T14:00:27.106Z,28.40
2022-08-05T14:02:56.315Z,28.40
2022-08-05T14:05:48.609Z,28.40
2022-08-05T14:08:10.698Z,28.40
2022-08-05T14:10:46.897Z,28.60
2022-08-05T14:13:15.486Z,28.70
2022-08-05T14:16:07.705Z,28.20
2022-08-05T14:18:29.311Z,28.30
2022-08-05T14:20:56.073Z,28.30
2022-08-05T14:23:25.731Z,28.20
2022-08-05T14:25:58.666Z,27.90
2022-08-05T14:28:28.507Z,28.10
2022-08-05T14:30:56.589Z,28.30
2022-08-05T14:33:23.869Z,28.30
2022-08-05T14:35:51.741Z,27.90
2022-08-05T14:38:32.290Z,27.30
2022-08-05T14:41:06.156Z,27.00
2022-08-05T14:43:57.753Z,27.10
2022-08-05T14:46:28.987Z,26.80
2022-08-05T14:49:06.326Z,26.60
2022-08-05T14:51:38.398Z,26.70
2022-08-05T14:54:28.967Z,26.90
2022-08-05T14:56:56.221Z,26.90
2022-08-05T14:59:23.166Z,26.90
2022-08-05T15:01:50.259Z,26.90
2022-08-05T15:04:20.267Z,27.10
2022-08-05T15:06:49.510Z,27.40
2022-08-05T15:09:51.556Z,27.60
2022-08-05T15:12:08.986Z,27.70
2022-08-05T15:14:42.265Z,27.70
2022-08-05T15:17:47.231Z,27.70
2022-08-05T15:20:05.007Z,27.60
2022-08-05T15:22:31.765Z,27.60
2022-08-05T15:24:59.253Z,27.60
2022-08-05T15:27:26.534Z,27.50
2022-08-05T15:29:59.199Z,27.50
2022-08-05T15:32:27.425Z,27.50
2022-08-05T15:34:56.613Z,27.60
2022-08-05T15:38:08.385Z,27.70
2022-08-05T15:41:01.804Z,27.70
2022-08-05T15:43:10.812Z,27.90
2022-08-05T15:45:45.734Z,28.00
2022-08-05T15:48:14.464Z,28.10
2022-08-05T15:50:43.760Z,28.20
2022-08-05T15:53:13.169Z,28.20
2022-08-05T15:56:02.511Z,28.20
2022-08-05T15:58:35.497Z,28.10
2022-08-05T16:01:16.165Z,27.60
2022-08-05T16:03:50.326Z,26.50
2022-08-05T16:06:20.122Z,25.70
2022-08-05T16:08:50.393Z,24.50
2022-08-05T16:11:40.143Z,22.70
2022-08-05T16:14:07.692Z,22.20
2022-08-05T16:16:36.269Z,22.10
2022-08-05T16:19:03.813Z,22.10
2022-08-05T16:21:58.972Z,22.10
2022-08-05T16:24:41.098Z,22.40
2022-08-05T16:27:05.148Z,22.40
2022-08-05T16:29:37.392Z,22.50
2022-08-05T16:32:06.466Z,22.60
2022-08-05T16:34:36.415Z,22.80
2022-08-05T16:37:03.295Z,22.80
2022-08-05T16:40:06.424Z,22.90
2022-08-05T16:42:35.221Z,23.00
2022-08-05T16:46:05.378Z,23.00
2022-08-05T16:47:53.622Z,23.00
2022-08-05T16:50:24.737Z,23.10
2022-08-05T16:52:51.509Z,23.30
2022-08-05T16:55:20.298Z,23.30
2022-08-05T16:58:00.415Z,23.20
2022-08-05T17:00:34.367Z,23.20
2022-08-05T17:03:09.189Z,23.10
2022-08-05T17:05:50.253Z,23.20
2022-08-05T17:08:35.920Z,23.20
2022-08-05T17:11:12.516Z,23.10
2022-08-05T17:13:47.408Z,23.10
2022-08-05T17:16:33.606Z,23.20
2022-08-05T17:19:01.712Z,23.20
2022-08-05T17:21:35.785Z,23.30
2022-08-05T17:24:28.461Z,23.30
2022-08-05T17:26:52.539Z,23.30
2022-08-05T17:29:22.541Z,23.30
2022-08-05T17:31:59.747Z,23.20
2022-08-05T17:34:29.869Z,23.20
2022-08-05T17:36:59.871Z,23.10
2022-08-05T17:39:34.403Z,23.10
2022-08-05T17:42:18.348Z,23.10
2022-08-05T17:44:51.351Z,23.00
2022-08-05T17:47:22.492Z,22.90
2022-08-05T17:50:04.016Z,23.00
2022-08-05T17:52:32.703Z,22.90
2022-08-05T17:55:00.445Z,22.80
2022-08-05T17:57:28.095Z,22.90
2022-08-05T18:00:04.747Z,22.90
2022-08-05T18:02:33.144Z,22.90
2022-08-05T18:05:06.332Z,23.00
2022-08-05T18:07:42.158Z,23.00
2022-08-05T18:10:20.560Z,22.90
2022-08-05T18:12:49.445Z,22.90
2022-08-05T18:15:16.469Z,22.80
2022-08-05T18:18:00.481Z,22.70
2022-08-05T18:20:32.248Z,22.60
2022-08-05T18:23:00.640Z,22.60
2022-08-05T18:25:39.251Z,22.60
2022-08-05T18:28:07.453Z,22.50
2022-08-05T18:30:38.996Z,22.40
2022-08-05T18:33:07.471Z,22.50
2022-08-05T18:36:00.817Z,22.40
2022-08-05T18:38:26.040Z,22.40
2022-08-05T18:41:57.517Z,22.40
2022-08-05T18:43:42.921Z,22.40
2022-08-05T18:46:15.227Z,22.40
2022-08-05T18:48:42.198Z,22.60
2022-08-05T18:52:04.359Z,22.60
2022-08-05T18:54:15.363Z,22.60
2022-08-05T18:56:51.076Z,22.50
2022-08-05T18:59:42.667Z,22.60
2022-08-05T19:02:05.739Z,22.60
2022-08-05T19:05:01.118Z,22.60
2022-08-05T19:07:45.141Z,22.70
2022-08-05T19:10:14.135Z,22.50
2022-08-05T19:12:40.936Z,22.60
2022-08-05T19:15:25.002Z,22.50
2022-08-05T19:18:09.064Z,22.50
2022-08-05T19:20:37.059Z,22.50
2022-08-05T19:23:08.838Z,22.30
2022-08-05T19:26:01.716Z,22.40
2022-08-05T19:28:31.236Z,22.40
2022-08-05T19:31:00.413Z,22.60
2022-08-05T19:33:34.029Z,22.70
2022-08-05T19:36:06.483Z,22.50
2022-08-05T19:38:35.899Z,22.60
2022-08-05T19:41:06.751Z,22.40
2022-08-05T19:44:06.916Z,22.30
2022-08-05T19:46:28.975Z,22.40
2022-08-05T19:49:03.051Z,22.50
2022-08-05T19:52:08.852Z,22.40
2022-08-05T19:54:25.547Z,22.40
2022-08-05T19:57:02.347Z,22.50
2022-08-05T20:00:01.280Z,22.50
2022-08-05T20:02:20.135Z,22.40
2022-08-05T20:04:48.525Z,22.20
2022-08-05T20:07:15.642Z,22.20
2022-08-05T20:10:04.981Z,22.30
2022-08-05T20:12:45.817Z,22.30
2022-08-05T20:15:23.318Z,22.20
2022-08-05T20:18:09.638Z,22.20
2022-08-05T20:20:38.112Z,22.10
2022-08-05T20:23:05.570Z,22.00
2022-08-05T20:25:39.987Z,22.00
2022-08-05T20:28:08.322Z,22.00
2022-08-05T20:30:41.673Z,22.00
2022-08-05T20:33:08.826Z,22.00
2022-08-05T20:35:40.525Z,22.00
2022-08-05T20:38:20.187Z,22.00
2022-08-05T20:40:55.501Z,22.00
2022-08-05T20:43:57.473Z,22.00
2022-08-05T20:46:12.425Z,21.90
2022-08-05T20:48:45.487Z,21.90
2022-08-05T20:51:18.082Z,21.90
2022-08-05T20:53:55.242Z,21.90
2022-08-05T20:56:29.839Z,21.90
2022-08-05T20:59:00.120Z,21.90
2022-08-05T21:01:41.570Z,21.70
2022-08-05T21:04:10.420Z,21.70
2022-08-05T21:06:45.122Z,21.70
2022-08-05T21:09:14.593Z,21.70
2022-08-05T21:12:06.909Z,21.70
2022-08-05T21:14:35.028Z,21.70
2022-08-05T21:17:04.971Z,21.70
2022-08-05T21:19:47.605Z,21.70
2022-08-05T21:22:18.678Z,21.60
2022-08-05T21:24:51.698Z,21.50
2022-08-05T21:27:24.714Z,21.50
2022-08-05T21:29:52.561Z,21.50
2022-08-05T21:32:21.122Z,21.50
2022-08-05T21:35:06.957Z,21.50
2022-08-05T21:37:40.987Z,21.40
2022-08-05T21:40:13.635Z,21.40
2022-08-05T21:42:44.871Z,21.40
2022-08-05T21:45:24.081Z,21.40
2022-08-05T21:47:56.431Z,21.40
2022-08-05T21:50:25.799Z,21.40
2022-08-05T21:52:52.898Z,21.30
2022-08-05T21:55:43.164Z,21.30
2022-08-05T21:58:06.975Z,21.20
2022-08-05T22:00:37.544Z,21.20
2022-08-05T22:03:09.991Z,21.20
2022-08-05T22:05:48.642Z,21.30
2022-08-05T22:08:22.159Z,21.30
2022-08-05T22:10:50.840Z,21.30
2022-08-05T22:14:19.920Z,21.20
2022-08-05T22:16:20.490Z,21.20
2022-08-05T22:18:52.624Z,21.20
2022-08-05T22:21:20.078Z,21.20
2022-08-05T22:24:09.097Z,21.20
2022-08-05T22:26:58.527Z,21.30
2022-08-05T22:29:30.880Z,21.30
2022-08-05T22:32:02.733Z,21.40
2022-08-05T22:34:30.866Z,21.40
2022-08-05T22:36:58.298Z,21.30
2022-08-05T22:39:29.795Z,21.20
2022-08-05T22:42:09.564Z,21.20
2022-08-05T22:44:38.875Z,21.30
2022-08-05T22:47:06.687Z,21.20
2022-08-05T22:50:19.118Z,21.30
2022-08-05T22:52:30.364Z,21.20
2022-08-05T22:55:01.147Z,21.10
2022-08-05T22:57:36.184Z,21.10
2022-08-05T23:00:06.176Z,21.00
2022-08-05T23:02:35.284Z,21.00
2022-08-05T23:05:13.097Z,21.00
2022-08-05T23:07:45.150Z,21.00
2022-08-05T23:10:16.296Z,21.00
2022-08-05T23:12:48.036Z,20.90
2022-08-05T23:15:18.745Z,20.80
2022-08-05T23:18:00.737Z,20.90
2022-08-05T23:20:30.307Z,20.80
2022-08-05T23:22:58.666Z,20.70
2022-08-05T23:25:53.524Z,20.70
2022-08-05T23:28:15.904Z,20.60
2022-08-05T23:30:53.021Z,20.60
2022-08-05T23:33:26.067Z,20.60
2022-08-05T23:36:10.227Z,20.50
2022-08-05T23:38:37.663Z,20.60
2022-08-05T23:41:04.509Z,20.50
2022-08-05T23:44:04.297Z,20.60
2022-08-05T23:46:21.353Z,20.70
2022-08-05T23:49:00.440Z,20.60
2022-08-05T23:51:53.543Z,20.60
2022-08-05T23:54:30.310Z,20.60
2022-08-05T23:57:04.939Z,20.50
